Latest Weather Observations for Karratha

IDW60801

Issued at 11:04 pm WST Wednesday 8 July 2020 (issued every 10 minutes, with the page automatically refreshed every 10 minutes)

About weather observations | Map of weather stations | Latest weather observations for WA | Other Formats
Station Details ID: 004083 Name: KARRATHA AERO Lat: -20.71 Lon: 116.77 Height: 5.3 m
Data from the previous 72 hours. | See also: Recent months at Karratha
Date/Time
WST
Temp
°C
App
Temp
°C
Dew
Point
°C
Rel
Hum
%
Delta-T
°C
Wind Press
QNH
hPa
Press
MSL
hPa
Rain since
9am
mm
Dir  Spd
km/h
Gust
km/h
Spd
kts
Gust
kts
08/11:00pm 17.5 14.6 9.7 60 4.1 SSW 15 15 8 8 1016.6 1016.6 0.0
08/10:30pm 17.6 15.9 10.0 61 4.0 ESE 9 11 5 6 1016.7 1016.7 0.0
08/10:00pm 18.9 16.4 11.0 60 4.3 SW 15 17 8 9 1016.6 1016.6 0.0
08/09:30pm 19.1 16.7 11.4 61 4.2 SW 15 17 8 9 1016.6 1016.6 0.0
08/09:00pm 19.3 17.1 12.1 63 4.0 SSW 15 17 8 9 1016.6 1016.6 0.0
08/08:30pm 19.2 17.1 12.5 65 3.7 SW 15 17 8 9 1016.4 1016.4 0.0
08/08:00pm 19.7 18.0 13.6 68 3.5 SW 15 17 8 9 1016.3 1016.3 0.0
08/07:30pm 21.0 19.9 13.2 61 4.5 WSW 11 13 6 7 1016.0 1016.0 0.0
08/07:00pm 22.3 21.2 10.8 48 6.3 WNW 7 9 4 5 1015.5 1015.5 0.0
08/06:30pm 23.3 22.5 12.9 52 6.0 NW 9 11 5 6 1015.1 1015.1 0.0
08/06:00pm 22.9 21.7 9.7 43 7.2 N 6 7 3 4 1014.8 1014.8 0.0
08/05:30pm 24.3 22.3 8.7 37 8.4 N 9 11 5 6 1014.6 1014.6 0.0
08/05:00pm 25.7 22.8 6.3 29 10.1 N 11 15 6 8 1014.5 1014.5 0.0
08/04:30pm 26.2 22.3 5.2 26 10.7 N 15 19 8 10 1014.6 1014.6 0.0
08/04:00pm 26.1 21.7 6.7 29 10.1 N 19 24 10 13 1014.5 1014.5 0.0
08/03:30pm 26.4 22.0 7.4 30 10.1 N 20 26 11 14 1014.6 1014.6 0.0
08/03:00pm 26.0 21.3 7.6 31 9.8 N 22 28 12 15 1014.6 1014.6 0.0
08/02:30pm 26.6 21.1 6.1 27 10.6 N 24 30 13 16 1015.0 1015.0 0.0
08/02:00pm 26.9 21.8 5.8 26 10.9 N 22 28 12 15 1015.3 1015.3 0.0
08/01:30pm 26.9 21.6 5.2 25 11.1 N 22 30 12 16 1015.6 1015.6 0.0
08/01:00pm 26.9 21.8 5.8 26 10.9 N 22 28 12 15 1016.1 1016.1 0.0
08/12:30pm 27.0 22.3 5.3 25 11.1 N 19 22 10 12 1016.7 1016.7 0.0
08/12:00pm 27.3 22.7 1.7 19 12.3 N 15 20 8 11 1017.2 1017.2 0.0
08/11:30am 27.6 22.8 0.4 17 12.9 N 15 19 8 10 1017.6 1017.6 0.0
08/11:00am 27.2 21.5 -0.8 16 12.9 N 19 22 10 12 1018.1 1018.1 0.0
08/10:30am 26.2 21.6 -0.8 17 12.3 N 13 20 7 11 1018.5 1018.5 0.0
08/10:00am 25.2 20.8 2.6 23 10.9 NE 15 19 8 10 1018.7 1018.7 0.0
08/09:30am 24.4 21.3 1.3 22 10.8 N 7 11 4 6 1018.7 1018.7 0.0
08/09:00am 23.1 21.3 0.9 23 10.2 CALM 0 0 0 0 1018.8 1018.8 0.0
08/08:30am 20.5 17.5 1.9 29 8.6 NE 7 11 4 6 1018.7 1018.7 0.0
08/08:00am 16.3 14.0 4.7 46 5.5 ENE 6 7 3 4 1018.6 1018.6 0.0
08/07:30am 13.9 11.7 5.5 57 4.0 ENE 6 9 3 5 1018.2 1018.2 0.0
08/07:00am 12.8 11.7 5.2 60 3.5 CALM 0 0 0 0 1017.9 1017.9 0.0
08/06:30am 13.4 10.3 5.6 59 3.7 NE 11 13 6 7 1017.6 1017.6 0.0
08/06:00am 14.6 12.3 5.9 56 4.1 SE 7 9 4 5 1017.4 1017.4 0.0
08/05:30am 15.1 13.9 6.4 56 4.2 S 2 6 1 3 1017.3 1017.3 0.0
08/05:00am 16.0 14.1 6.7 54 4.6 SSW 6 7 3 4 1017.3 1017.3 0.0
08/04:30am 15.5 13.6 6.5 55 4.4 SSW 6 6 3 3 1017.4 1017.4 0.0
08/04:00am 15.7 13.6 6.7 55 4.4 SW 7 9 4 5 1017.5 1017.5 0.0
08/03:30am 16.0 14.0 7.2 56 4.4 WSW 7 7 4 4 1017.4 1017.4 0.0
08/03:00am 15.0 13.0 7.1 59 3.9 SW 7 9 4 5 1017.4 1017.4 0.0
08/02:30am 15.5 13.5 7.0 57 4.2 SSE 7 11 4 6 1017.5 1017.5 0.0
08/02:00am 15.4 12.6 6.9 57 4.2 S 11 11 6 6 1017.6 1017.6 0.0
08/01:30am 14.9 12.4 6.5 57 4.1 E 9 9 5 5 1017.8 1017.8 0.0
08/01:00am 15.0 12.1 6.6 57 4.1 E 11 13 6 7 1018.0 1018.0 0.0
08/12:30am 15.3 12.5 6.8 57 4.2 E 11 11 6 6 1018.2 1018.2 0.0
08/12:00am 15.6 12.1 7.4 58 4.1 E 15 17 8 9 1018.4 1018.4 0.0
 
Date/Time
WST
Temp
°C
App
Temp
°C
Dew
Point
°C
Rel
Hum
%
Delta-T
°C
Wind Press
QNH
hPa
Press
MSL
hPa
Rain since
9am
mm
Dir  Spd
km/h
Gust
km/h
Spd
kts
Gust
kts
07/11:30pm 15.0 11.6 7.8 62 3.6 ENE 15 17 8 9 1018.5 1018.5 0.0
07/11:00pm 15.0 12.0 7.8 62 3.6 E 13 15 7 8 1018.7 1018.7 0.0
07/10:30pm 15.9 12.7 8.6 62 3.7 E 15 17 8 9 1018.4 1018.4 0.0
07/10:00pm 16.2 13.1 8.9 62 3.7 SSE 15 17 8 9 1018.2 1018.2 0.0
07/09:30pm 17.2 17.2 9.9 62 3.8 CALM 0 0 0 0 1018.2 1018.2 0.0
07/09:00pm 17.6 18.0 11.2 66 3.5 CALM 0 0 0 0 1018.2 1018.2 0.0
07/08:30pm 17.9 18.6 12.1 69 3.2 CALM 0 0 0 0 1018.3 1018.3 0.0
07/08:00pm 18.7 19.6 12.9 69 3.3 CALM 0 0 0 0 1018.1 1018.1 0.0
07/07:30pm 19.6 20.9 14.0 70 3.2 CALM 0 0 0 0 1017.8 1017.8 0.0
07/07:00pm 20.3 21.5 14.9 71 3.2 NNE 2 9 1 5 1017.6 1017.6 0.0
07/06:30pm 20.7 19.8 13.6 64 4.1 NE 11 11 6 6 1017.3 1017.3 0.0
07/06:00pm 22.4 22.4 14.3 60 4.7 NE 7 9 4 5 1017.0 1017.0 0.0
07/05:30pm 23.6 22.6 13.5 53 5.9 NE 11 13 6 7 1016.7 1016.7 0.0
07/05:00pm 24.4 22.3 12.4 47 6.9 NE 15 17 8 9 1016.4 1016.4 0.0
07/04:30pm 24.9 21.7 11.1 42 7.7 NE 19 24 10 13 1016.4 1016.4 0.0
07/04:00pm 25.1 21.7 10.6 40 8.1 NE 19 26 10 14 1016.5 1016.5 0.0
07/03:30pm 26.1 21.8 10.7 38 8.6 NNE 24 30 13 16 1016.4 1016.4 0.0
07/03:00pm 25.4 21.3 11.6 42 7.8 NNE 24 30 13 16 1016.5 1016.5 0.0
07/02:30pm 25.9 20.0 7.5 31 9.8 NNE 28 35 15 19 1016.4 1016.4 0.0
07/02:00pm 25.5 19.7 9.3 36 8.8 NE 30 37 16 20 1016.6 1016.6 0.0
07/01:30pm 25.7 19.2 6.3 29 10.1 NNE 30 35 16 19 1016.9 1016.9 0.0
07/01:00pm 26.0 19.8 8.0 32 9.6 N 30 35 16 19 1017.3 1017.3 0.0
07/12:30pm 26.3 19.0 5.3 26 10.7 N 33 39 18 21 1018.0 1018.0 0.0
07/12:00pm 26.6 20.2 7.1 29 10.3 N 30 35 16 19 1018.4 1018.4 0.0
07/11:30am 26.3 19.8 2.9 22 11.5 N 26 30 14 16 1018.8 1018.8 0.0
07/11:00am 26.6 19.5 1.1 19 12.1 N 28 33 15 18 1019.2 1019.2 0.0
07/10:30am 26.3 19.6 1.6 20 11.8 N 26 33 14 18 1019.3 1019.3 0.0
07/10:00am 25.3 18.1 0.8 20 11.4 N 28 35 15 19 1019.7 1019.7 0.0
07/09:30am 24.4 17.2 0.7 21 11.0 N 28 33 15 18 1019.8 1019.8 0.0
07/09:00am 23.3 18.1 2.2 25 10.0 N 19 28 10 15 1019.9 1019.9 0.0
07/08:30am 18.9 17.8 5.0 40 6.7 CALM 0 0 0 0 1019.9 1019.9 0.0
07/08:00am 16.9 15.8 4.9 45 5.7 CALM 0 0 0 0 1019.7 1019.7 0.0
07/07:30am 14.6 10.9 4.3 50 4.8 SE 13 15 7 8 1019.4 1019.4 0.0
07/07:00am 13.2 9.1 4.4 55 4.0 ESE 15 17 8 9 1019.0 1019.0 0.0
07/06:30am 13.0 9.8 4.9 58 3.7 NE 11 13 6 7 1018.7 1018.7 0.0
07/06:00am 14.0 10.1 5.4 56 4.0 ENE 15 17 8 9 1018.4 1018.4 0.0
07/05:30am 13.7 11.1 6.1 60 3.6 ENE 9 11 5 6 1018.2 1018.2 0.0
07/05:00am 14.2 13.0 6.6 60 3.7 E 2 9 1 5 1018.1 1018.1 0.0
07/04:30am 14.4 11.2 6.7 60 3.7 E 13 15 7 8 1018.1 1018.1 0.0
07/04:00am 13.7 11.5 6.1 60 3.6 E 7 11 4 6 1018.2 1018.2 0.0
07/03:30am 14.8 10.6 5.9 55 4.3 ENE 17 19 9 10 1018.1 1018.1 0.0
07/03:00am 14.5 10.3 5.8 56 4.1 ENE 17 19 9 10 1018.2 1018.2 0.0
07/02:30am 14.6 11.4 6.7 59 3.8 SSE 13 13 7 7 1018.4 1018.4 0.0
07/02:00am 15.1 11.4 7.9 62 3.6 E 17 19 9 10 1018.5 1018.5 0.0
07/01:30am 14.9 12.0 8.2 64 3.4 ESE 13 15 7 8 1018.8 1018.8 0.0
07/01:00am 15.0 11.8 8.3 64 3.4 E 15 17 8 9 1018.8 1018.8 0.0
07/12:30am 15.3 11.7 8.3 63 3.5 E 17 17 9 9 1019.0 1019.0 0.0
07/12:00am 15.7 13.0 8.9 64 3.5 ENE 13 17 7 9 1018.9 1018.9 0.0
 
Date/Time
WST
Temp
°C
App
Temp
°C
Dew
Point
°C
Rel
Hum
%
Delta-T
°C
Wind Press
QNH
hPa
Press
MSL
hPa
Rain since
9am
mm
Dir  Spd
km/h
Gust
km/h
Spd
kts
Gust
kts
06/11:30pm 15.9 14.1 9.6 66 3.3 NE 9 11 5 6 1018.7 1018.7 0.0
06/11:00pm 16.4 15.1 10.0 66 3.4 E 7 9 4 5 1018.8 1018.8 0.0
06/10:30pm 16.5 15.0 10.4 67 3.2 E 9 11 5 6 1019.0 1019.0 0.0
06/10:00pm 17.7 18.5 12.4 71 2.9 CALM 0 6 0 3 1019.0 1019.0 0.0
06/09:30pm 17.6 17.1 12.1 70 3.0 ENE 6 7 3 4 1018.7 1018.7 0.0
06/09:00pm 18.1 17.3 12.8 71 3.0 ENE 9 9 5 5 1018.7 1018.7 0.0
06/08:30pm 19.1 18.9 13.7 71 3.1 NNE 7 9 4 5 1018.5 1018.5 0.0
06/08:00pm 19.3 18.4 13.7 70 3.2 NNE 11 11 6 6 1018.3 1018.3 0.0
06/07:30pm 19.9 19.5 14.0 69 3.4 NNE 9 9 5 5 1018.1 1018.1 0.0
06/07:00pm 20.6 21.0 14.7 69 3.4 NE 6 6 3 3 1017.9 1017.9 0.0
06/06:30pm 21.2 21.5 15.1 68 3.6 N 7 7 4 4 1017.5 1017.5 0.0
06/06:00pm 21.9 22.1 14.8 64 4.2 NE 7 9 4 5 1017.3 1017.3 0.0
06/05:30pm 23.7 23.0 14.4 56 5.5 NE 11 15 6 8 1017.0 1017.0 0.0
06/05:00pm 24.6 22.4 13.2 49 6.6 NE 17 20 9 11 1017.0 1017.0 0.0
06/04:30pm 24.9 21.7 11.8 44 7.4 NE 20 30 11 16 1016.9 1016.9 0.0
06/04:00pm 25.2 21.3 12.1 44 7.5 NE 24 30 13 16 1016.9 1016.9 0.0
06/03:30pm 25.5 21.2 10.9 40 8.2 NE 24 30 13 16 1016.8 1016.8 0.0
06/03:00pm 26.2 21.4 8.7 33 9.5 NE 24 32 13 17 1016.9 1016.9 0.0
06/02:30pm 26.0 20.0 7.1 30 10.0 NE 28 35 15 19 1016.9 1016.9 0.0
06/02:00pm 25.8 20.3 7.4 31 9.7 NE 26 33 14 18 1017.3 1017.3 0.0
06/01:30pm 26.2 21.1 7.7 31 9.9 NE 24 32 13 17 1017.4 1017.4 0.0
06/01:00pm 26.3 19.6 7.4 30 10.0 N 32 43 17 23 1017.6 1017.6 0.0
06/12:30pm 26.0 18.9 6.6 29 10.1 N 33 39 18 21 1018.0 1018.0 0.0
06/12:00pm 26.0 19.4 7.6 31 9.8 N 32 39 17 21 1018.5 1018.5 0.0
06/11:30am 25.6 18.5 6.3 29 10.0 N 33 41 18 22 1018.8 1018.8 0.0
06/11:00am 26.2 18.8 5.2 26 10.7 NNE 33 41 18 22 1019.1 1019.1 0.0
06/10:30am 25.7 18.2 4.2 25 10.7 NE 33 41 18 22 1019.5 1019.5 0.0
06/10:27am 25.5 17.4 3.5 24 10.8 ENE 35 41 19 22 1019.5 1019.5 0.0
06/10:15am 25.3 17.0 2.1 22 11.1 NNE 35 41 19 22 1019.6 1019.6 0.0
06/10:00am 24.8 17.1 2.3 23 10.8 N 32 41 17 22 1019.5 1019.5 0.0
06/09:30am 24.1 17.5 4.0 27 9.9 N 28 37 15 20 1019.7 1019.7 0.0
06/09:00am 22.7 17.2 3.8 29 9.2 N 22 30 12 16 1019.4 1019.4 0.0
06/08:30am 20.9 17.1 5.7 37 7.6 N 15 19 8 10 1019.4 1019.4 0.0
06/08:00am 19.5 16.1 5.9 41 6.7 N 13 17 7 9 1019.1 1019.1 0.0
06/07:30am 17.7 14.3 5.9 46 5.8 N 13 13 7 7 1019.0 1019.0 0.0
06/07:00am 16.4 14.5 6.8 53 4.7 NNE 6 9 3 5 1018.6 1018.6 0.0
06/06:30am 15.1 12.7 8.6 65 3.3 NNE 11 15 6 8 1018.1 1018.1 0.0
06/06:00am 15.0 12.3 9.1 68 3.0 NE 13 15 7 8 1017.7 1017.7 0.0
06/05:30am 15.6 12.7 9.7 68 3.1 NE 15 17 8 9 1017.5 1017.5 0.0
06/05:00am 14.9 13.2 9.7 71 2.7 NE 9 11 5 6 1017.3 1017.3 0.0
06/04:30am 15.3 14.2 10.7 74 2.4 N 7 9 4 5 1017.3 1017.3 0.0
06/04:00am 16.0 14.3 11.2 73 2.6 N 11 13 6 7 1017.1 1017.1 0.0
06/03:30am 15.9 13.8 11.1 73 2.6 NNE 13 15 7 8 1017.4 1017.4 0.0
06/03:00am 16.3 15.1 11.5 73 2.6 NE 9 9 5 5 1017.4 1017.4 0.0
06/02:30am 16.6 17.3 12.2 75 2.4 CALM 0 0 0 0 1017.4 1017.4 0.0
06/02:00am 17.9 19.1 13.8 77 2.3 CALM 0 0 0 0 1017.3 1017.3 0.0
06/01:30am 16.8 17.6 12.5 76 2.4 CALM 0 0 0 0 1017.4 1017.4 0.0
06/01:00am 17.6 18.6 13.3 76 2.4 CALM 0 0 0 0 1017.5 1017.5 0.0
06/12:30am 17.1 17.0 13.4 79 2.1 E 6 7 3 4 1017.5 1017.5 0.0
06/12:00am 16.9 16.8 13.4 80 2.0 SSE 6 9 3 5 1017.5 1017.5 0.0
 
Date/Time
WST
Temp
°C
App
Temp
°C
Dew
Point
°C
Rel
Hum
%
Delta-T
°C
Wind Press
QNH
hPa
Press
MSL
hPa
Rain since
9am
mm
Dir  Spd
km/h
Gust
km/h
Spd
kts
Gust
kts
05/11:30pm 17.0 16.6 13.1 78 2.2 SE 7 11 4 6 1017.7 1017.7 0.0

Other formats

Comma delimited format used in spreadsheet applications
http://www.bom.gov.au/fwo/IDW60801/IDW60801.95307.axf

JavaScript Object Notation format (JSON) in row-major order
http://www.bom.gov.au/fwo/IDW60801/IDW60801.95307.json

Data quality

Most of these data are generated automatically and are frequently updated. Quality checks on data are not normally performed. It is possible for incorrect values to appear. Refer to information at About Latest Weather Observations and please check the disclaimer before using these data.